sensor_id;sensor_type;location;lat;lon;timestamp;P1;durP1;ratioP1;P2;durP2;ratioP2
980;SDS011;479;53.514;9.994;2023-04-24T00:02:01;6.47;;;5.73;;
980;SDS011;479;53.514;9.994;2023-04-24T00:04:29;6.40;;;5.80;;
980;SDS011;479;53.514;9.994;2023-04-24T00:06:57;5.90;;;5.17;;
980;SDS011;479;53.514;9.994;2023-04-24T00:09:25;5.33;;;4.83;;
980;SDS011;479;53.514;9.994;2023-04-24T00:11:52;6.00;;;5.50;;
980;SDS011;479;53.514;9.994;2023-04-24T00:14:19;6.47;;;5.83;;
980;SDS011;479;53.514;9.994;2023-04-24T00:16:49;7.27;;;5.50;;
980;SDS011;479;53.514;9.994;2023-04-24T00:19:17;5.80;;;5.20;;
980;SDS011;479;53.514;9.994;2023-04-24T00:21:46;4.97;;;4.47;;
980;SDS011;479;53.514;9.994;2023-04-24T00:24:15;4.97;;;4.53;;
980;SDS011;479;53.514;9.994;2023-04-24T00:26:42;7.10;;;6.40;;
980;SDS011;479;53.514;9.994;2023-04-24T00:29:09;6.27;;;5.37;;
980;SDS011;479;53.514;9.994;2023-04-24T00:31:35;6.20;;;5.60;;
980;SDS011;479;53.514;9.994;2023-04-24T00:34:04;6.10;;;4.93;;
980;SDS011;479;53.514;9.994;2023-04-24T00:36:31;5.00;;;4.40;;
980;SDS011;479;53.514;9.994;2023-04-24T00:38:58;5.73;;;5.20;;
980;SDS011;479;53.514;9.994;2023-04-24T00:41:25;6.30;;;4.70;;
980;SDS011;479;53.514;9.994;2023-04-24T00:43:52;5.13;;;4.73;;
980;SDS011;479;53.514;9.994;2023-04-24T00:46:19;5.17;;;4.70;;
980;SDS011;479;53.514;9.994;2023-04-24T00:48:47;5.73;;;5.20;;
980;SDS011;479;53.514;9.994;2023-04-24T00:51:16;5.10;;;4.60;;
980;SDS011;479;53.514;9.994;2023-04-24T00:53:43;5.20;;;4.70;;
980;SDS011;479;53.514;9.994;2023-04-24T00:56:10;5.80;;;4.80;;
980;SDS011;479;53.514;9.994;2023-04-24T00:58:37;4.53;;;4.13;;
980;SDS011;479;53.514;9.994;2023-04-24T01:01:05;5.00;;;4.50;;
980;SDS011;479;53.514;9.994;2023-04-24T01:03:33;6.23;;;5.60;;
980;SDS011;479;53.514;9.994;2023-04-24T01:06:02;5.90;;;5.40;;
980;SDS011;479;53.514;9.994;2023-04-24T01:08:31;5.10;;;4.60;;
980;SDS011;479;53.514;9.994;2023-04-24T01:11:02;4.60;;;4.20;;
980;SDS011;479;53.514;9.994;2023-04-24T01:13:31;6.17;;;4.90;;
980;SDS011;479;53.514;9.994;2023-04-24T01:15:58;5.73;;;4.20;;
980;SDS011;479;53.514;9.994;2023-04-24T01:18:26;5.80;;;4.40;;
980;SDS011;479;53.514;9.994;2023-04-24T01:20:54;5.00;;;4.50;;
980;SDS011;479;53.514;9.994;2023-04-24T01:23:25;6.50;;;5.40;;
980;SDS011;479;53.514;9.994;2023-04-24T01:25:52;4.63;;;3.90;;
980;SDS011;479;53.514;9.994;2023-04-24T01:28:19;5.63;;;5.00;;
980;SDS011;479;53.514;9.994;2023-04-24T01:30:47;4.80;;;4.30;;
980;SDS011;479;53.514;9.994;2023-04-24T01:33:14;4.27;;;3.57;;
980;SDS011;479;53.514;9.994;2023-04-24T01:35:41;4.80;;;4.30;;
980;SDS011;479;53.514;9.994;2023-04-24T01:38:09;3.73;;;3.47;;
980;SDS011;479;53.514;9.994;2023-04-24T01:40:37;4.17;;;3.87;;
980;SDS011;479;53.514;9.994;2023-04-24T01:43:04;3.60;;;3.30;;
980;SDS011;479;53.514;9.994;2023-04-24T01:45:31;5.43;;;4.50;;
980;SDS011;479;53.514;9.994;2023-04-24T01:47:58;4.60;;;4.20;;
980;SDS011;479;53.514;9.994;2023-04-24T01:50:27;4.20;;;3.80;;
980;SDS011;479;53.514;9.994;2023-04-24T01:52:54;2.93;;;2.63;;
980;SDS011;479;53.514;9.994;2023-04-24T01:55:21;3.73;;;3.40;;
980;SDS011;479;53.514;9.994;2023-04-24T01:57:50;4.10;;;3.50;;
980;SDS011;479;53.514;9.994;2023-04-24T02:00:20;3.40;;;3.10;;
980;SDS011;479;53.514;9.994;2023-04-24T02:02:47;3.50;;;3.23;;
980;SDS011;479;53.514;9.994;2023-04-24T02:05:14;3.73;;;3.40;;
980;SDS011;479;53.514;9.994;2023-04-24T02:07:41;3.67;;;3.37;;
980;SDS011;479;53.514;9.994;2023-04-24T02:10:08;4.17;;;3.73;;
980;SDS011;479;53.514;9.994;2023-04-24T02:12:41;3.70;;;3.40;;
980;SDS011;479;53.514;9.994;2023-04-24T02:15:10;4.17;;;3.87;;
980;SDS011;479;53.514;9.994;2023-04-24T02:17:37;3.90;;;3.07;;
980;SDS011;479;53.514;9.994;2023-04-24T02:20:05;3.90;;;3.60;;
980;SDS011;479;53.514;9.994;2023-04-24T02:22:33;3.43;;;3.13;;
980;SDS011;479;53.514;9.994;2023-04-24T02:25:01;3.70;;;2.90;;
980;SDS011;479;53.514;9.994;2023-04-24T02:27:30;3.07;;;2.80;;
980;SDS011;479;53.514;9.994;2023-04-24T02:29:57;3.70;;;3.30;;
980;SDS011;479;53.514;9.994;2023-04-24T02:32:26;3.40;;;3.10;;
980;SDS011;479;53.514;9.994;2023-04-24T02:34:53;2.93;;;2.63;;
980;SDS011;479;53.514;9.994;2023-04-24T02:37:20;3.43;;;2.80;;
980;SDS011;479;53.514;9.994;2023-04-24T02:39:47;3.60;;;3.30;;
980;SDS011;479;53.514;9.994;2023-04-24T02:42:14;2.93;;;2.57;;
980;SDS011;479;53.514;9.994;2023-04-24T02:44:41;2.77;;;2.57;;
980;SDS011;479;53.514;9.994;2023-04-24T02:47:08;2.87;;;2.63;;
980;SDS011;479;53.514;9.994;2023-04-24T02:49:36;2.70;;;2.50;;
980;SDS011;479;53.514;9.994;2023-04-24T02:52:03;4.60;;;2.47;;
980;SDS011;479;53.514;9.994;2023-04-24T02:54:29;2.60;;;2.40;;
980;SDS011;479;53.514;9.994;2023-04-24T02:56:56;2.23;;;2.03;;
980;SDS011;479;53.514;9.994;2023-04-24T02:59:23;2.23;;;2.13;;
980;SDS011;479;53.514;9.994;2023-04-24T03:01:52;2.60;;;2.40;;
980;SDS011;479;53.514;9.994;2023-04-24T03:04:19;2.23;;;2.03;;
980;SDS011;479;53.514;9.994;2023-04-24T03:06:48;2.00;;;1.90;;
980;SDS011;479;53.514;9.994;2023-04-24T03:09:18;2.30;;;2.10;;
980;SDS011;479;53.514;9.994;2023-04-24T03:11:46;2.03;;;1.93;;
980;SDS011;479;53.514;9.994;2023-04-24T03:14:14;2.70;;;2.33;;
980;SDS011;479;53.514;9.994;2023-04-24T03:16:41;2.60;;;2.40;;
980;SDS011;479;53.514;9.994;2023-04-24T03:19:08;2.17;;;2.07;;
980;SDS011;479;53.514;9.994;2023-04-24T03:21:43;1.80;;;1.70;;
980;SDS011;479;53.514;9.994;2023-04-24T03:24:11;2.50;;;2.10;;
980;SDS011;479;53.514;9.994;2023-04-24T03:26:38;2.20;;;2.03;;
980;SDS011;479;53.514;9.994;2023-04-24T03:29:27;1.90;;;1.43;;
980;SDS011;479;53.514;9.994;2023-04-24T03:31:54;2.80;;;2.60;;
980;SDS011;479;53.514;9.994;2023-04-24T03:34:21;2.40;;;2.17;;
980;SDS011;479;53.514;9.994;2023-04-24T03:36:49;1.93;;;1.83;;
980;SDS011;479;53.514;9.994;2023-04-24T03:39:17;3.50;;;1.73;;
980;SDS011;479;53.514;9.994;2023-04-24T03:41:50;2.60;;;2.40;;
980;SDS011;479;53.514;9.994;2023-04-24T03:44:21;2.10;;;1.60;;
980;SDS011;479;53.514;9.994;2023-04-24T03:46:49;1.60;;;1.50;;
980;SDS011;479;53.514;9.994;2023-04-24T03:49:19;1.67;;;1.57;;
980;SDS011;479;53.514;9.994;2023-04-24T03:51:46;1.97;;;1.87;;
980;SDS011;479;53.514;9.994;2023-04-24T03:54:22;1.80;;;1.70;;
980;SDS011;479;53.514;9.994;2023-04-24T03:56:50;3.13;;;2.60;;
980;SDS011;479;53.514;9.994;2023-04-24T03:59:17;1.67;;;1.57;;
980;SDS011;479;53.514;9.994;2023-04-24T04:01:49;1.60;;;1.50;;
980;SDS011;479;53.514;9.994;2023-04-24T04:04:16;1.70;;;1.60;;
980;SDS011;479;53.514;9.994;2023-04-24T04:06:44;1.67;;;1.57;;
980;SDS011;479;53.514;9.994;2023-04-24T04:09:11;1.70;;;1.60;;
980;SDS011;479;53.514;9.994;2023-04-24T04:11:40;2.13;;;1.97;;
980;SDS011;479;53.514;9.994;2023-04-24T04:14:07;1.80;;;1.70;;
980;SDS011;479;53.514;9.994;2023-04-24T04:16:36;2.00;;;1.90;;
980;SDS011;479;53.514;9.994;2023-04-24T04:19:04;2.37;;;1.87;;
980;SDS011;479;53.514;9.994;2023-04-24T04:21:31;2.30;;;2.20;;
980;SDS011;479;53.514;9.994;2023-04-24T04:24:11;1.40;;;1.30;;
980;SDS011;479;53.514;9.994;2023-04-24T04:26:44;1.60;;;1.53;;
980;SDS011;479;53.514;9.994;2023-04-24T04:29:16;2.63;;;1.93;;
980;SDS011;479;53.514;9.994;2023-04-24T04:31:44;2.03;;;1.93;;
980;SDS011;479;53.514;9.994;2023-04-24T04:34:12;1.40;;;1.30;;
980;SDS011;479;53.514;9.994;2023-04-24T04:36:42;1.80;;;1.50;;
980;SDS011;479;53.514;9.994;2023-04-24T04:39:25;4.20;;;1.97;;
980;SDS011;479;53.514;9.994;2023-04-24T04:42:01;2.07;;;1.97;;
980;SDS011;479;53.514;9.994;2023-04-24T04:44:35;2.07;;;1.57;;
980;SDS011;479;53.514;9.994;2023-04-24T04:47:04;1.70;;;1.60;;
980;SDS011;479;53.514;9.994;2023-04-24T04:49:34;1.90;;;1.60;;
980;SDS011;479;53.514;9.994;2023-04-24T04:52:04;1.77;;;1.67;;
980;SDS011;479;53.514;9.994;2023-04-24T04:54:31;1.93;;;1.83;;
980;SDS011;479;53.514;9.994;2023-04-24T04:56:58;1.60;;;1.50;;
980;SDS011;479;53.514;9.994;2023-04-24T04:59:27;1.90;;;1.80;;
980;SDS011;479;53.514;9.994;2023-04-24T05:02:01;2.90;;;1.80;;
980;SDS011;479;53.514;9.994;2023-04-24T05:04:28;2.00;;;1.90;;
980;SDS011;479;53.514;9.994;2023-04-24T05:06:55;1.80;;;1.40;;
980;SDS011;479;53.514;9.994;2023-04-24T05:09:23;2.67;;;2.40;;
980;SDS011;479;53.514;9.994;2023-04-24T05:11:55;1.83;;;1.73;;
980;SDS011;479;53.514;9.994;2023-04-24T05:14:23;1.73;;;1.63;;
980;SDS011;479;53.514;9.994;2023-04-24T05:16:52;2.20;;;2.00;;
980;SDS011;479;53.514;9.994;2023-04-24T05:19:23;1.93;;;1.77;;
980;SDS011;479;53.514;9.994;2023-04-24T05:21:50;1.43;;;1.33;;
980;SDS011;479;53.514;9.994;2023-04-24T05:24:17;1.50;;;1.40;;
980;SDS011;479;53.514;9.994;2023-04-24T05:26:53;1.60;;;1.50;;
980;SDS011;479;53.514;9.994;2023-04-24T05:29:25;1.30;;;1.27;;
980;SDS011;479;53.514;9.994;2023-04-24T05:31:54;2.13;;;1.60;;
980;SDS011;479;53.514;9.994;2023-04-24T05:34:22;1.57;;;1.47;;
980;SDS011;479;53.514;9.994;2023-04-24T05:36:52;1.50;;;1.20;;
980;SDS011;479;53.514;9.994;2023-04-24T05:39:19;2.03;;;1.87;;
980;SDS011;479;53.514;9.994;2023-04-24T05:41:46;1.27;;;1.27;;
980;SDS011;479;53.514;9.994;2023-04-24T05:44:13;1.67;;;1.27;;
980;SDS011;479;53.514;9.994;2023-04-24T05:46:41;1.23;;;1.23;;
980;SDS011;479;53.514;9.994;2023-04-24T05:49:10;2.00;;;1.50;;
980;SDS011;479;53.514;9.994;2023-04-24T05:51:37;1.20;;;1.20;;
980;SDS011;479;53.514;9.994;2023-04-24T05:54:05;2.20;;;1.57;;
980;SDS011;479;53.514;9.994;2023-04-24T05:56:32;2.20;;;2.00;;
980;SDS011;479;53.514;9.994;2023-04-24T05:59:02;1.27;;;1.00;;
980;SDS011;479;53.514;9.994;2023-04-24T06:01:29;2.07;;;1.93;;
980;SDS011;479;53.514;9.994;2023-04-24T06:04:05;1.50;;;1.47;;
980;SDS011;479;53.514;9.994;2023-04-24T06:06:33;1.50;;;1.40;;
980;SDS011;479;53.514;9.994;2023-04-24T06:09:01;1.67;;;1.57;;
980;SDS011;479;53.514;9.994;2023-04-24T06:11:29;1.57;;;1.30;;
980;SDS011;479;53.514;9.994;2023-04-24T06:13:57;1.63;;;1.53;;
980;SDS011;479;53.514;9.994;2023-04-24T06:16:36;1.93;;;1.83;;
980;SDS011;479;53.514;9.994;2023-04-24T06:19:13;1.80;;;1.50;;
980;SDS011;479;53.514;9.994;2023-04-24T06:21:41;1.50;;;1.40;;
980;SDS011;479;53.514;9.994;2023-04-24T06:24:08;2.40;;;1.40;;
980;SDS011;479;53.514;9.994;2023-04-24T06:26:35;1.80;;;1.70;;
980;SDS011;479;53.514;9.994;2023-04-24T06:29:03;4.47;;;2.17;;
980;SDS011;479;53.514;9.994;2023-04-24T06:31:30;1.70;;;1.20;;
980;SDS011;479;53.514;9.994;2023-04-24T06:34:02;1.57;;;1.47;;
980;SDS011;479;53.514;9.994;2023-04-24T06:36:29;2.07;;;1.73;;
980;SDS011;479;53.514;9.994;2023-04-24T06:38:57;2.10;;;1.83;;
980;SDS011;479;53.514;9.994;2023-04-24T06:41:24;1.60;;;1.37;;
980;SDS011;479;53.514;9.994;2023-04-24T06:43:51;3.33;;;1.60;;
980;SDS011;479;53.514;9.994;2023-04-24T06:46:18;2.10;;;1.30;;
980;SDS011;479;53.514;9.994;2023-04-24T06:48:47;1.50;;;1.40;;
980;SDS011;479;53.514;9.994;2023-04-24T06:51:14;1.53;;;1.43;;
980;SDS011;479;53.514;9.994;2023-04-24T06:53:42;1.90;;;1.80;;
980;SDS011;479;53.514;9.994;2023-04-24T06:56:12;3.37;;;3.17;;
980;SDS011;479;53.514;9.994;2023-04-24T06:58:39;2.30;;;1.57;;
980;SDS011;479;53.514;9.994;2023-04-24T07:01:06;1.90;;;1.80;;
980;SDS011;479;53.514;9.994;2023-04-24T07:03:33;1.90;;;1.80;;
980;SDS011;479;53.514;9.994;2023-04-24T07:06:00;2.30;;;2.10;;
980;SDS011;479;53.514;9.994;2023-04-24T07:08:28;4.20;;;2.00;;
980;SDS011;479;53.514;9.994;2023-04-24T07:10:56;2.00;;;1.90;;
980;SDS011;479;53.514;9.994;2023-04-24T07:13:25;2.53;;;2.33;;
980;SDS011;479;53.514;9.994;2023-04-24T07:15:53;2.50;;;2.30;;
980;SDS011;479;53.514;9.994;2023-04-24T07:18:21;2.10;;;2.00;;
980;SDS011;479;53.514;9.994;2023-04-24T07:20:48;2.80;;;2.60;;
980;SDS011;479;53.514;9.994;2023-04-24T07:23:16;2.33;;;2.17;;
980;SDS011;479;53.514;9.994;2023-04-24T07:25:43;2.30;;;2.07;;
980;SDS011;479;53.514;9.994;2023-04-24T07:28:10;2.43;;;1.70;;
980;SDS011;479;53.514;9.994;2023-04-24T07:30:38;1.90;;;1.80;;
980;SDS011;479;53.514;9.994;2023-04-24T07:33:05;2.10;;;1.90;;
980;SDS011;479;53.514;9.994;2023-04-24T07:35:32;2.90;;;2.53;;
980;SDS011;479;53.514;9.994;2023-04-24T07:37:59;3.10;;;2.80;;
980;SDS011;479;53.514;9.994;2023-04-24T07:40:26;2.63;;;2.43;;
980;SDS011;479;53.514;9.994;2023-04-24T07:42:53;2.27;;;2.17;;
980;SDS011;479;53.514;9.994;2023-04-24T07:45:20;2.73;;;2.53;;
980;SDS011;479;53.514;9.994;2023-04-24T07:47:49;2.70;;;2.50;;
980;SDS011;479;53.514;9.994;2023-04-24T07:50:17;2.77;;;2.37;;
980;SDS011;479;53.514;9.994;2023-04-24T07:52:44;3.27;;;2.97;;
980;SDS011;479;53.514;9.994;2023-04-24T07:55:11;3.40;;;2.90;;
980;SDS011;479;53.514;9.994;2023-04-24T07:57:37;2.90;;;2.60;;
980;SDS011;479;53.514;9.994;2023-04-24T08:00:05;3.30;;;3.00;;
980;SDS011;479;53.514;9.994;2023-04-24T08:02:39;2.93;;;2.73;;
980;SDS011;479;53.514;9.994;2023-04-24T08:05:07;3.20;;;2.90;;
980;SDS011;479;53.514;9.994;2023-04-24T08:07:35;3.83;;;3.10;;
980;SDS011;479;53.514;9.994;2023-04-24T08:10:02;5.60;;;5.13;;
980;SDS011;479;53.514;9.994;2023-04-24T08:12:30;4.40;;;4.00;;
980;SDS011;479;53.514;9.994;2023-04-24T08:14:56;3.40;;;3.10;;
980;SDS011;479;53.514;9.994;2023-04-24T08:17:23;3.93;;;3.60;;
980;SDS011;479;53.514;9.994;2023-04-24T08:19:50;4.33;;;3.27;;
980;SDS011;479;53.514;9.994;2023-04-24T08:22:20;4.20;;;3.90;;
980;SDS011;479;53.514;9.994;2023-04-24T08:24:47;4.13;;;3.80;;
980;SDS011;479;53.514;9.994;2023-04-24T08:27:14;5.17;;;4.73;;
980;SDS011;479;53.514;9.994;2023-04-24T08:29:41;5.13;;;3.90;;
980;SDS011;479;53.514;9.994;2023-04-24T08:32:08;2.60;;;2.40;;
980;SDS011;479;53.514;9.994;2023-04-24T08:34:35;4.07;;;3.67;;
980;SDS011;479;53.514;9.994;2023-04-24T08:37:02;4.40;;;4.00;;
980;SDS011;479;53.514;9.994;2023-04-24T08:39:30;3.50;;;3.30;;
980;SDS011;479;53.514;9.994;2023-04-24T08:41:58;4.77;;;4.23;;
980;SDS011;479;53.514;9.994;2023-04-24T08:44:30;3.80;;;3.50;;
980;SDS011;479;53.514;9.994;2023-04-24T08:46:58;3.47;;;3.17;;
980;SDS011;479;53.514;9.994;2023-04-24T08:49:27;3.97;;;3.63;;
980;SDS011;479;53.514;9.994;2023-04-24T08:51:55;3.80;;;3.47;;
980;SDS011;479;53.514;9.994;2023-04-24T08:54:22;3.40;;;3.07;;
980;SDS011;479;53.514;9.994;2023-04-24T08:56:53;3.57;;;3.13;;
980;SDS011;479;53.514;9.994;2023-04-24T08:59:20;3.40;;;3.10;;
980;SDS011;479;53.514;9.994;2023-04-24T09:01:48;4.53;;;3.50;;
980;SDS011;479;53.514;9.994;2023-04-24T09:04:17;4.40;;;4.10;;
980;SDS011;479;53.514;9.994;2023-04-24T09:06:47;4.27;;;3.87;;
980;SDS011;479;53.514;9.994;2023-04-24T09:09:15;4.63;;;3.57;;
980;SDS011;479;53.514;9.994;2023-04-24T09:11:44;4.40;;;3.47;;
980;SDS011;479;53.514;9.994;2023-04-24T09:14:12;3.67;;;3.37;;
980;SDS011;479;53.514;9.994;2023-04-24T09:16:39;3.90;;;3.60;;
980;SDS011;479;53.514;9.994;2023-04-24T09:19:06;4.73;;;3.80;;
980;SDS011;479;53.514;9.994;2023-04-24T09:21:33;3.33;;;3.13;;
980;SDS011;479;53.514;9.994;2023-04-24T09:24:02;5.40;;;3.60;;
980;SDS011;479;53.514;9.994;2023-04-24T09:26:31;4.90;;;4.50;;
980;SDS011;479;53.514;9.994;2023-04-24T09:28:59;5.00;;;4.03;;
980;SDS011;479;53.514;9.994;2023-04-24T09:31:28;4.47;;;3.37;;
980;SDS011;479;53.514;9.994;2023-04-24T09:33:56;3.90;;;3.60;;
980;SDS011;479;53.514;9.994;2023-04-24T09:36:28;4.37;;;4.00;;
980;SDS011;479;53.514;9.994;2023-04-24T09:38:58;4.53;;;3.70;;
980;SDS011;479;53.514;9.994;2023-04-24T09:41:25;5.53;;;4.50;;
980;SDS011;479;53.514;9.994;2023-04-24T09:43:53;4.00;;;3.60;;
980;SDS011;479;53.514;9.994;2023-04-24T09:46:30;4.10;;;3.70;;
980;SDS011;479;53.514;9.994;2023-04-24T09:49:02;4.93;;;4.43;;
980;SDS011;479;53.514;9.994;2023-04-24T09:51:35;4.87;;;4.47;;
980;SDS011;479;53.514;9.994;2023-04-24T09:54:03;5.00;;;4.23;;
980;SDS011;479;53.514;9.994;2023-04-24T09:56:34;7.50;;;4.50;;
980;SDS011;479;53.514;9.994;2023-04-24T09:59:04;5.60;;;3.50;;
980;SDS011;479;53.514;9.994;2023-04-24T10:01:33;4.90;;;4.50;;
980;SDS011;479;53.514;9.994;2023-04-24T10:04:00;5.17;;;3.93;;
980;SDS011;479;53.514;9.994;2023-04-24T10:06:32;5.00;;;4.50;;
980;SDS011;479;53.514;9.994;2023-04-24T10:09:00;5.27;;;4.77;;
980;SDS011;479;53.514;9.994;2023-04-24T10:11:28;5.57;;;4.27;;
980;SDS011;479;53.514;9.994;2023-04-24T10:13:56;6.03;;;5.00;;
980;SDS011;479;53.514;9.994;2023-04-24T10:16:24;5.50;;;5.00;;
980;SDS011;479;53.514;9.994;2023-04-24T10:18:55;5.40;;;4.90;;
980;SDS011;479;53.514;9.994;2023-04-24T10:21:25;7.13;;;5.70;;
980;SDS011;479;53.514;9.994;2023-04-24T10:23:53;6.33;;;4.70;;
980;SDS011;479;53.514;9.994;2023-04-24T10:26:20;6.23;;;5.43;;
980;SDS011;479;53.514;9.994;2023-04-24T10:28:49;7.07;;;5.70;;
980;SDS011;479;53.514;9.994;2023-04-24T10:31:16;6.20;;;5.00;;
980;SDS011;479;53.514;9.994;2023-04-24T10:33:44;8.40;;;5.73;;
980;SDS011;479;53.514;9.994;2023-04-24T10:36:14;6.57;;;5.83;;
980;SDS011;479;53.514;9.994;2023-04-24T10:38:41;7.23;;;5.97;;
980;SDS011;479;53.514;9.994;2023-04-24T10:41:14;6.73;;;6.10;;
980;SDS011;479;53.514;9.994;2023-04-24T10:43:44;7.53;;;6.73;;
980;SDS011;479;53.514;9.994;2023-04-24T10:46:16;6.20;;;4.93;;
980;SDS011;479;53.514;9.994;2023-04-24T10:48:51;7.10;;;4.80;;
980;SDS011;479;53.514;9.994;2023-04-24T10:51:21;5.63;;;5.13;;
980;SDS011;479;53.514;9.994;2023-04-24T10:53:49;7.90;;;7.00;;
980;SDS011;479;53.514;9.994;2023-04-24T10:56:16;8.93;;;7.43;;
980;SDS011;479;53.514;9.994;2023-04-24T10:58:44;6.10;;;5.33;;
980;SDS011;479;53.514;9.994;2023-04-24T11:01:22;6.50;;;5.70;;
980;SDS011;479;53.514;9.994;2023-04-24T11:03:54;7.27;;;6.50;;
980;SDS011;479;53.514;9.994;2023-04-24T11:06:29;11.83;;;5.70;;
980;SDS011;479;53.514;9.994;2023-04-24T11:09:04;6.60;;;6.00;;
980;SDS011;479;53.514;9.994;2023-04-24T11:11:32;6.33;;;5.73;;
980;SDS011;479;53.514;9.994;2023-04-24T11:14:01;7.73;;;6.23;;
980;SDS011;479;53.514;9.994;2023-04-24T11:16:36;8.53;;;6.20;;
980;SDS011;479;53.514;9.994;2023-04-24T11:19:18;7.47;;;6.00;;
980;SDS011;479;53.514;9.994;2023-04-24T11:21:57;8.30;;;6.20;;
980;SDS011;479;53.514;9.994;2023-04-24T11:24:27;5.23;;;4.73;;
980;SDS011;479;53.514;9.994;2023-04-24T11:26:56;7.03;;;6.10;;
980;SDS011;479;53.514;9.994;2023-04-24T11:29:37;7.00;;;5.27;;
980;SDS011;479;53.514;9.994;2023-04-24T11:32:15;6.20;;;5.60;;
980;SDS011;479;53.514;9.994;2023-04-24T11:34:50;5.90;;;5.30;;
980;SDS011;479;53.514;9.994;2023-04-24T11:37:21;6.73;;;5.63;;
980;SDS011;479;53.514;9.994;2023-04-24T11:39:50;6.40;;;5.80;;
980;SDS011;479;53.514;9.994;2023-04-24T11:42:17;5.70;;;5.20;;
980;SDS011;479;53.514;9.994;2023-04-24T11:44:45;6.20;;;4.83;;
980;SDS011;479;53.514;9.994;2023-04-24T11:47:13;5.67;;;5.17;;
980;SDS011;479;53.514;9.994;2023-04-24T11:49:40;4.07;;;3.70;;
980;SDS011;479;53.514;9.994;2023-04-24T11:52:07;4.67;;;4.27;;
980;SDS011;479;53.514;9.994;2023-04-24T11:54:35;6.87;;;4.93;;
980;SDS011;479;53.514;9.994;2023-04-24T11:57:03;7.30;;;5.40;;
980;SDS011;479;53.514;9.994;2023-04-24T11:59:35;4.63;;;4.13;;
980;SDS011;479;53.514;9.994;2023-04-24T12:02:02;5.10;;;4.60;;
980;SDS011;479;53.514;9.994;2023-04-24T12:04:37;4.90;;;4.50;;
980;SDS011;479;53.514;9.994;2023-04-24T12:07:05;6.80;;;5.07;;
980;SDS011;479;53.514;9.994;2023-04-24T12:09:41;4.93;;;4.50;;
980;SDS011;479;53.514;9.994;2023-04-24T12:12:09;4.60;;;4.20;;
980;SDS011;479;53.514;9.994;2023-04-24T12:14:44;5.97;;;4.90;;
980;SDS011;479;53.514;9.994;2023-04-24T12:17:11;4.40;;;4.07;;
980;SDS011;479;53.514;9.994;2023-04-24T12:19:44;5.60;;;5.10;;
980;SDS011;479;53.514;9.994;2023-04-24T12:22:12;5.13;;;4.73;;
980;SDS011;479;53.514;9.994;2023-04-24T12:27:29;5.13;;;4.37;;
980;SDS011;479;53.514;9.994;2023-04-24T12:29:58;6.00;;;5.40;;
980;SDS011;479;53.514;9.994;2023-04-24T12:32:27;6.47;;;4.43;;
980;SDS011;479;53.514;9.994;2023-04-24T12:34:54;4.60;;;3.37;;
980;SDS011;479;53.514;9.994;2023-04-24T12:37:22;7.33;;;5.80;;
980;SDS011;479;53.514;9.994;2023-04-24T12:40:05;12.90;;;9.67;;
980;SDS011;479;53.514;9.994;2023-04-24T12:42:34;6.43;;;4.57;;
980;SDS011;479;53.514;9.994;2023-04-24T12:45:02;6.50;;;5.10;;
980;SDS011;479;53.514;9.994;2023-04-24T12:47:31;4.60;;;4.20;;
980;SDS011;479;53.514;9.994;2023-04-24T12:49:58;5.20;;;4.70;;
980;SDS011;479;53.514;9.994;2023-04-24T12:52:25;3.93;;;3.63;;
980;SDS011;479;53.514;9.994;2023-04-24T12:54:54;4.10;;;3.77;;
980;SDS011;479;53.514;9.994;2023-04-24T12:57:24;4.80;;;3.90;;
980;SDS011;479;53.514;9.994;2023-04-24T12:59:53;5.33;;;4.20;;
980;SDS011;479;53.514;9.994;2023-04-24T13:02:20;5.57;;;4.53;;
980;SDS011;479;53.514;9.994;2023-04-24T13:04:47;5.77;;;4.30;;
980;SDS011;479;53.514;9.994;2023-04-24T13:07:15;5.17;;;4.10;;
980;SDS011;479;53.514;9.994;2023-04-24T13:09:42;4.60;;;4.20;;
980;SDS011;479;53.514;9.994;2023-04-24T13:12:10;7.40;;;5.00;;
980;SDS011;479;53.514;9.994;2023-04-24T13:14:39;4.87;;;3.80;;
980;SDS011;479;53.514;9.994;2023-04-24T13:17:06;5.70;;;5.10;;
980;SDS011;479;53.514;9.994;2023-04-24T13:19:37;6.20;;;4.07;;
980;SDS011;479;53.514;9.994;2023-04-24T13:22:05;5.27;;;4.77;;
980;SDS011;479;53.514;9.994;2023-04-24T13:24:32;10.23;;;4.47;;
980;SDS011;479;53.514;9.994;2023-04-24T13:27:00;6.03;;;5.43;;
980;SDS011;479;53.514;9.994;2023-04-24T13:29:27;6.80;;;4.93;;
980;SDS011;479;53.514;9.994;2023-04-24T13:31:55;4.07;;;3.77;;
980;SDS011;479;53.514;9.994;2023-04-24T13:34:22;8.43;;;3.80;;
980;SDS011;479;53.514;9.994;2023-04-24T13:36:50;3.40;;;3.20;;
980;SDS011;479;53.514;9.994;2023-04-24T13:39:18;24.07;;;7.13;;
980;SDS011;479;53.514;9.994;2023-04-24T13:41:45;4.67;;;4.27;;
980;SDS011;479;53.514;9.994;2023-04-24T13:44:13;6.73;;;4.40;;
980;SDS011;479;53.514;9.994;2023-04-24T13:46:40;10.40;;;5.77;;
980;SDS011;479;53.514;9.994;2023-04-24T13:49:10;4.80;;;4.30;;
980;SDS011;479;53.514;9.994;2023-04-24T13:51:37;4.23;;;3.57;;
980;SDS011;479;53.514;9.994;2023-04-24T13:54:05;4.50;;;4.10;;
980;SDS011;479;53.514;9.994;2023-04-24T13:56:32;4.70;;;4.30;;
980;SDS011;479;53.514;9.994;2023-04-24T13:58:59;4.30;;;3.90;;
980;SDS011;479;53.514;9.994;2023-04-24T14:01:26;4.37;;;3.97;;
980;SDS011;479;53.514;9.994;2023-04-24T14:03:53;4.30;;;3.90;;
980;SDS011;479;53.514;9.994;2023-04-24T14:06:22;3.63;;;3.33;;
980;SDS011;479;53.514;9.994;2023-04-24T14:08:50;5.77;;;4.17;;
980;SDS011;479;53.514;9.994;2023-04-24T14:11:17;4.83;;;4.20;;
980;SDS011;479;53.514;9.994;2023-04-24T14:13:44;4.40;;;3.80;;
980;SDS011;479;53.514;9.994;2023-04-24T14:16:12;5.80;;;3.30;;
980;SDS011;479;53.514;9.994;2023-04-24T14:18:40;3.90;;;3.30;;
980;SDS011;479;53.514;9.994;2023-04-24T14:21:07;4.00;;;3.60;;
980;SDS011;479;53.514;9.994;2023-04-24T14:23:35;4.00;;;3.70;;
980;SDS011;479;53.514;9.994;2023-04-24T14:26:02;3.37;;;3.07;;
980;SDS011;479;53.514;9.994;2023-04-24T14:28:29;2.10;;;1.90;;
980;SDS011;479;53.514;9.994;2023-04-24T14:30:56;3.00;;;2.80;;
980;SDS011;479;53.514;9.994;2023-04-24T14:33:23;2.73;;;2.47;;
980;SDS011;479;53.514;9.994;2023-04-24T14:35:50;3.07;;;2.77;;
980;SDS011;479;53.514;9.994;2023-04-24T14:38:17;6.63;;;2.87;;
980;SDS011;479;53.514;9.994;2023-04-24T14:40:45;3.73;;;3.37;;
980;SDS011;479;53.514;9.994;2023-04-24T14:43:12;4.47;;;3.10;;
980;SDS011;479;53.514;9.994;2023-04-24T14:45:39;3.80;;;3.50;;
980;SDS011;479;53.514;9.994;2023-04-24T14:48:06;4.67;;;4.27;;
980;SDS011;479;53.514;9.994;2023-04-24T14:50:34;5.03;;;4.53;;
980;SDS011;479;53.514;9.994;2023-04-24T14:53:01;4.70;;;4.20;;
980;SDS011;479;53.514;9.994;2023-04-24T14:55:28;4.47;;;4.07;;
980;SDS011;479;53.514;9.994;2023-04-24T14:57:56;3.97;;;3.60;;
980;SDS011;479;53.514;9.994;2023-04-24T15:00:23;4.40;;;4.00;;
980;SDS011;479;53.514;9.994;2023-04-24T15:02:50;4.67;;;4.17;;
980;SDS011;479;53.514;9.994;2023-04-24T15:05:17;4.17;;;3.77;;
980;SDS011;479;53.514;9.994;2023-04-24T15:07:44;6.83;;;5.67;;
980;SDS011;479;53.514;9.994;2023-04-24T15:10:11;3.83;;;3.13;;
980;SDS011;479;53.514;9.994;2023-04-24T15:12:38;4.43;;;3.83;;
980;SDS011;479;53.514;9.994;2023-04-24T15:15:07;4.73;;;4.07;;
980;SDS011;479;53.514;9.994;2023-04-24T15:17:35;5.40;;;4.10;;
980;SDS011;479;53.514;9.994;2023-04-24T15:20:02;3.90;;;3.60;;
980;SDS011;479;53.514;9.994;2023-04-24T15:22:31;4.00;;;3.60;;
980;SDS011;479;53.514;9.994;2023-04-24T15:24:58;2.90;;;2.70;;
980;SDS011;479;53.514;9.994;2023-04-24T15:27:26;4.37;;;2.77;;
980;SDS011;479;53.514;9.994;2023-04-24T15:29:53;3.70;;;3.00;;
980;SDS011;479;53.514;9.994;2023-04-24T15:32:21;2.07;;;1.67;;
980;SDS011;479;53.514;9.994;2023-04-24T15:34:48;3.50;;;2.20;;
980;SDS011;479;53.514;9.994;2023-04-24T15:37:15;2.80;;;2.50;;
980;SDS011;479;53.514;9.994;2023-04-24T15:39:43;9.73;;;6.83;;
980;SDS011;479;53.514;9.994;2023-04-24T15:42:11;18.90;;;14.33;;
980;SDS011;479;53.514;9.994;2023-04-24T15:44:38;5.17;;;3.70;;
980;SDS011;479;53.514;9.994;2023-04-24T15:47:05;2.50;;;2.30;;
980;SDS011;479;53.514;9.994;2023-04-24T15:49:33;9.60;;;6.40;;
980;SDS011;479;53.514;9.994;2023-04-24T15:52:00;4.50;;;3.33;;
980;SDS011;479;53.514;9.994;2023-04-24T15:54:27;9.07;;;6.20;;
980;SDS011;479;53.514;9.994;2023-04-24T15:56:54;5.37;;;4.50;;